METAR Data
IDs: Format: Raw Decoded Include TAF

Data at: 0147 UTC 01 Nov 2020

PAOR 010053Z 30004KT 10SM SCT013 OVC100 M17/M20 A2982 RMK AO2 SLP161 T11721200 $